Time,TemperatureF,DewpointF,PressureIn,WindDirection,WindDirectionDegrees,WindSpeedMPH,WindSpeedGustMPH,Humidity,HourlyPrecipIn,Conditions,Clouds,dailyrainin,SolarRadiationWatts/m^2,SoftwareType,DateUTC
2013-04-14 00:12:00,69.0,-28.0,-100.00,East,97,2.0,11.0,0,0.00,,,0.00,0.000000,,2013-04-14 10:12:00,
2013-04-14 00:22:00,69.0,-28.0,-100.00,East,97,2.0,11.0,0,0.00,,,0.00,0.000000,,2013-04-14 10:22:00,
2013-04-14 00:32:00,69.0,-28.0,-100.00,East,97,2.0,11.0,0,0.00,,,0.00,0.000000,,2013-04-14 10:32:00,
2013-04-14 00:42:00,69.0,-28.0,-100.00,East,97,2.0,11.0,0,0.00,,,0.00,0.000000,,2013-04-14 10:42:00,
2013-04-14 00:52:00,69.0,-28.0,-100.00,WNW,286,4.0,7.0,0,0.00,,,0.00,0.000000,,2013-04-14 10:52:00,
2013-04-14 01:12:00,69.0,-28.0,-100.00,WNW,286,4.0,7.0,0,0.00,,,0.00,0.000000,,2013-04-14 11:12:00,
2013-04-14 01:22:00,69.0,-28.0,-100.00,WNW,286,4.0,7.0,0,0.00,,,0.00,0.000000,,2013-04-14 11:22:00,
2013-04-14 01:32:00,69.0,-28.0,-100.00,WNW,286,4.0,7.0,0,0.00,,,0.00,0.000000,,2013-04-14 11:32:00,
2013-04-14 01:42:00,69.0,-28.0,-100.00,WNW,286,4.0,7.0,0,0.00,,,0.00,0.000000,,2013-04-14 11:42:00,
2013-04-14 02:21:00,67.0,-29.0,-100.00,SSE,152,4.0,8.0,0,0.00,,,0.00,0.000000,,2013-04-14 12:21:00,
2013-04-14 02:32:00,67.0,-29.0,-100.00,SSE,152,4.0,8.0,0,0.00,,,0.00,0.000000,,2013-04-14 12:32:00,
2013-04-14 02:42:00,67.0,-29.0,-100.00,SSE,152,4.0,8.0,0,0.00,,,0.00,0.000000,,2013-04-14 12:42:00,
2013-04-14 02:51:00,67.0,-29.0,-100.00,SSE,152,4.0,8.0,0,0.00,,,0.00,0.000000,,2013-04-14 12:51:00,
2013-04-14 02:52:00,69.0,-28.0,-100.00,SSE,163,2.0,9.0,0,0.00,,,-99.99,0.000000,,2013-04-14 12:52:00,
2013-04-14 03:22:00,69.0,-28.0,-100.00,SSE,163,2.0,9.0,0,0.00,,,-99.99,0.000000,,2013-04-14 13:22:00,
2013-04-14 03:32:00,69.0,-28.0,-100.00,SSE,163,2.0,9.0,0,0.00,,,-99.99,0.000000,,2013-04-14 13:32:00,
2013-04-14 03:42:00,69.0,-28.0,-100.00,SSE,163,2.0,9.0,0,0.00,,,-99.99,0.000000,,2013-04-14 13:42:00,
2013-04-14 03:52:00,69.0,-28.0,-100.00,SW,230,10.0,13.0,0,0.00,,,0.00,0.000000,,2013-04-14 13:52:00,
2013-04-14 04:12:00,69.0,-28.0,-100.00,SW,230,10.0,13.0,0,0.00,,,0.00,0.000000,,2013-04-14 14:12:00,
2013-04-14 04:22:00,69.0,-28.0,-100.00,SW,230,10.0,13.0,0,0.00,,,0.00,0.000000,,2013-04-14 14:22:00,
2013-04-14 04:32:00,69.0,-28.0,-100.00,SW,230,10.0,13.0,0,0.00,,,0.00,0.000000,,2013-04-14 14:32:00,
2013-04-14 04:42:00,69.0,-28.0,-100.00,SW,230,10.0,13.0,0,0.00,,,0.00,0.000000,,2013-04-14 14:42:00,
2013-04-14 04:52:00,70.0,-27.0,-100.00,SW,233,9.0,21.0,0,0.00,,,0.00,0.000000,,2013-04-14 14:52:00,
2013-04-14 05:12:00,70.0,-27.0,-100.00,SW,233,9.0,21.0,0,0.00,,,0.00,0.000000,,2013-04-14 15:12:00,
2013-04-14 05:22:00,70.0,-27.0,-100.00,SW,233,9.0,21.0,0,0.00,,,0.00,0.000000,,2013-04-14 15:22:00,
2013-04-14 05:33:00,70.0,-27.0,-100.00,SW,233,9.0,21.0,0,0.00,,,0.00,0.000000,,2013-04-14 15:33:00,
2013-04-14 05:43:00,70.0,-27.0,-100.00,SW,233,9.0,21.0,0,0.00,,,0.00,0.000000,,2013-04-14 15:43:00,
2013-04-14 05:52:00,69.0,-28.0,-100.00,SW,230,9.0,13.0,0,0.00,,,0.00,0.000000,,2013-04-14 15:52:00,
2013-04-14 06:13:00,69.0,-28.0,-100.00,SW,230,9.0,13.0,0,0.00,,,0.00,0.000000,,2013-04-14 16:13:00,
2013-04-14 06:22:00,69.0,-28.0,-100.00,SW,230,9.0,13.0,0,0.00,,,0.00,0.000000,,2013-04-14 16:22:00,
2013-04-14 06:32:00,69.0,-28.0,-100.00,SW,230,9.0,13.0,0,0.00,,,0.00,0.000000,,2013-04-14 16:32:00,
2013-04-14 06:43:00,69.0,-28.0,-100.00,SW,230,9.0,13.0,0,0.00,,,0.00,0.000000,,2013-04-14 16:43:00,
2013-04-14 06:52:00,68.0,-28.0,-100.00,SW,214,17.0,26.0,0,0.03,,,0.03,0.000000,,2013-04-14 16:52:00,
2013-04-14 07:12:00,68.0,-28.0,-100.00,SW,214,17.0,26.0,0,0.03,,,0.03,0.000000,,2013-04-14 17:12:00,
2013-04-14 07:22:00,68.0,-28.0,-100.00,SW,214,17.0,26.0,0,0.03,,,0.03,0.000000,,2013-04-14 17:22:00,
2013-04-14 07:32:00,68.0,-28.0,-100.00,SW,214,17.0,26.0,0,0.03,,,0.03,0.000000,,2013-04-14 17:32:00,
2013-04-14 07:42:00,68.0,-28.0,-100.00,SW,214,17.0,26.0,0,0.03,,,0.03,0.000000,,2013-04-14 17:42:00,
2013-04-14 07:52:00,69.0,-28.0,-100.00,SSW,211,12.0,29.0,0,0.00,,,0.03,43.000000,,2013-04-14 17:52:00,
2013-04-14 08:12:00,69.0,-28.0,-100.00,SSW,211,12.0,29.0,0,0.00,,,0.03,43.000000,,2013-04-14 18:12:00,
2013-04-14 08:22:00,69.0,-28.0,-100.00,SSW,211,12.0,29.0,0,0.00,,,0.03,43.000000,,2013-04-14 18:22:00,
2013-04-14 08:32:00,69.0,-28.0,-100.00,SSW,211,12.0,29.0,0,0.00,,,0.03,43.000000,,2013-04-14 18:32:00,
2013-04-14 08:42:00,69.0,-28.0,-100.00,SSW,211,12.0,29.0,0,0.00,,,0.03,43.000000,,2013-04-14 18:42:00,
2013-04-14 08:52:00,73.0,-25.0,-100.00,South,177,13.0,28.0,0,0.00,,,0.03,299.000000,,2013-04-14 18:52:00,
2013-04-14 09:22:00,73.0,-25.0,-100.00,South,177,13.0,28.0,0,0.00,,,0.03,299.000000,,2013-04-14 19:22:00,
2013-04-14 09:32:00,73.0,-25.0,-100.00,South,177,13.0,28.0,0,0.00,,,0.03,299.000000,,2013-04-14 19:32:00,
2013-04-14 09:42:00,73.0,-25.0,-100.00,South,177,13.0,28.0,0,0.00,,,0.03,299.000000,,2013-04-14 19:42:00,
2013-04-14 09:52:00,72.0,-26.0,-100.00,SSE,168,13.0,23.0,0,0.00,,,0.03,340.000000,,2013-04-14 19:52:00,
2013-04-14 10:12:00,72.0,-26.0,-100.00,SSE,168,13.0,23.0,0,0.00,,,0.03,340.000000,,2013-04-14 20:12:00,
2013-04-14 10:22:00,72.0,-26.0,-100.00,SSE,168,13.0,23.0,0,0.00,,,0.03,340.000000,,2013-04-14 20:22:00,
2013-04-14 10:32:00,72.0,-26.0,-100.00,SSE,168,13.0,23.0,0,0.00,,,0.03,340.000000,,2013-04-14 20:32:00,
2013-04-14 10:42:00,72.0,-26.0,-100.00,SSE,168,13.0,23.0,0,0.00,,,0.03,340.000000,,2013-04-14 20:42:00,
2013-04-14 10:52:00,75.0,-24.0,-100.00,South,182,12.0,23.0,0,0.00,,,0.03,498.000000,,2013-04-14 20:52:00,
2013-04-14 11:22:00,75.0,-24.0,-100.00,South,182,12.0,23.0,0,0.00,,,0.03,498.000000,,2013-04-14 21:22:00,
2013-04-14 11:33:00,75.0,-24.0,-100.00,South,182,12.0,23.0,0,0.00,,,0.03,498.000000,,2013-04-14 21:33:00,
2013-04-14 11:43:00,75.0,-24.0,-100.00,South,182,12.0,23.0,0,0.00,,,0.03,498.000000,,2013-04-14 21:43:00,
2013-04-14 11:52:00,75.0,-24.0,-100.00,SSW,196,16.0,30.0,0,0.00,,,0.03,506.000000,,2013-04-14 21:52:00,
2013-04-14 12:12:00,75.0,-24.0,-100.00,SSW,196,16.0,30.0,0,0.00,,,0.03,506.000000,,2013-04-14 22:12:00,
2013-04-14 12:23:00,75.0,-24.0,-100.00,SSW,196,16.0,30.0,0,0.00,,,0.03,506.000000,,2013-04-14 22:23:00,
2013-04-14 12:32:00,75.0,-24.0,-100.00,SSW,196,16.0,30.0,0,0.00,,,0.03,506.000000,,2013-04-14 22:32:00,
2013-04-14 12:43:00,75.0,-24.0,-100.00,SSW,196,16.0,30.0,0,0.00,,,0.03,506.000000,,2013-04-14 22:43:00,
2013-04-14 12:52:00,75.0,-24.0,-100.00,SSW,197,14.0,32.0,0,0.00,,,0.03,502.000000,,2013-04-14 22:52:00,
2013-04-14 13:22:00,75.0,-24.0,-100.00,SSW,197,14.0,32.0,0,0.00,,,0.03,502.000000,,2013-04-14 23:22:00,
2013-04-14 13:32:00,75.0,-24.0,-100.00,SSW,197,14.0,32.0,0,0.00,,,0.03,502.000000,,2013-04-14 23:32:00,
2013-04-14 13:42:00,75.0,-24.0,-100.00,SSW,197,14.0,32.0,0,0.00,,,0.03,502.000000,,2013-04-14 23:42:00,
2013-04-14 13:52:00,77.0,-23.0,-100.00,SSW,203,15.0,31.0,0,0.00,,,0.03,510.000000,,2013-04-14 23:52:00,
2013-04-14 14:22:00,77.0,-23.0,-100.00,SSW,203,15.0,31.0,0,0.00,,,0.03,510.000000,,2013-04-15 00:22:00,
2013-04-14 14:32:00,77.0,-23.0,-100.00,SSW,203,15.0,31.0,0,0.00,,,0.03,510.000000,,2013-04-15 00:32:00,
2013-04-14 14:42:00,77.0,-23.0,-100.00,SSW,203,15.0,31.0,0,0.00,,,0.03,510.000000,,2013-04-15 00:42:00,
2013-04-14 14:52:00,77.0,-23.0,-100.00,East,86,14.0,34.0,0,0.00,,,0.03,581.000000,,2013-04-15 00:52:00,
2013-04-14 15:12:00,77.0,-23.0,-100.00,East,86,14.0,34.0,0,0.00,,,0.03,581.000000,,2013-04-15 01:12:00,
2013-04-14 15:22:00,77.0,-23.0,-100.00,East,86,14.0,34.0,0,0.00,,,0.03,581.000000,,2013-04-15 01:22:00,
2013-04-14 15:32:00,77.0,-23.0,-100.00,East,86,14.0,34.0,0,0.00,,,0.03,581.000000,,2013-04-15 01:32:00,
2013-04-14 15:42:00,77.0,-23.0,-100.00,East,86,14.0,34.0,0,0.00,,,0.03,581.000000,,2013-04-15 01:42:00,
2013-04-14 15:52:00,77.0,-23.0,-100.00,SSW,208,14.0,29.0,0,0.00,,,0.03,469.000000,,2013-04-15 01:52:00,
2013-04-14 16:22:00,77.0,-23.0,-100.00,SSW,208,14.0,29.0,0,0.00,,,0.03,469.000000,,2013-04-15 02:22:00,
2013-04-14 16:32:00,77.0,-23.0,-100.00,SSW,208,14.0,29.0,0,0.00,,,0.03,469.000000,,2013-04-15 02:32:00,
2013-04-14 16:42:00,77.0,-23.0,-100.00,SSW,208,14.0,29.0,0,0.00,,,0.03,469.000000,,2013-04-15 02:42:00,
2013-04-14 16:52:00,76.0,-23.0,-100.00,SSW,211,15.0,29.0,0,0.00,,,0.03,720.000000,,2013-04-15 02:52:00,
2013-04-14 17:12:00,76.0,-23.0,-100.00,SSW,211,15.0,29.0,0,0.00,,,0.03,720.000000,,2013-04-15 03:12:00,
2013-04-14 17:22:00,76.0,-23.0,-100.00,SSW,211,15.0,29.0,0,0.00,,,0.03,720.000000,,2013-04-15 03:22:00,
2013-04-14 17:32:00,76.0,-23.0,-100.00,SSW,211,15.0,29.0,0,0.00,,,0.03,720.000000,,2013-04-15 03:32:00,
2013-04-14 17:43:00,76.0,-23.0,-100.00,SSW,211,15.0,29.0,0,0.00,,,0.03,720.000000,,2013-04-15 03:43:00,
2013-04-14 17:52:00,74.0,-25.0,-100.00,SSW,209,16.0,29.0,0,0.00,,,0.03,206.000000,,2013-04-15 03:52:00,
2013-04-14 18:13:00,74.0,-25.0,-100.00,SSW,209,16.0,29.0,0,0.00,,,0.03,206.000000,,2013-04-15 04:13:00,
2013-04-14 18:22:00,74.0,-25.0,-100.00,SSW,209,16.0,29.0,0,0.00,,,0.03,206.000000,,2013-04-15 04:22:00,
2013-04-14 18:33:00,74.0,-25.0,-100.00,SSW,209,16.0,29.0,0,0.00,,,0.03,206.000000,,2013-04-15 04:33:00,
2013-04-14 18:42:00,74.0,-25.0,-100.00,SSW,209,16.0,29.0,0,0.00,,,0.03,206.000000,,2013-04-15 04:42:00,
2013-04-14 18:52:00,72.0,-26.0,-100.00,SW,216,13.0,32.0,0,0.00,,,0.03,136.000000,,2013-04-15 04:52:00,
2013-04-14 19:12:00,72.0,-26.0,-100.00,SW,216,13.0,32.0,0,0.00,,,0.03,136.000000,,2013-04-15 05:12:00,
2013-04-14 19:23:00,72.0,-26.0,-100.00,SW,216,13.0,32.0,0,0.00,,,0.03,136.000000,,2013-04-15 05:23:00,
2013-04-14 19:32:00,72.0,-26.0,-100.00,SW,216,13.0,32.0,0,0.00,,,0.03,136.000000,,2013-04-15 05:32:00,
2013-04-14 19:42:00,72.0,-26.0,-100.00,SW,216,13.0,32.0,0,0.00,,,0.03,136.000000,,2013-04-15 05:42:00,
2013-04-14 19:52:00,72.0,-26.0,-100.00,SSW,211,8.0,26.0,0,0.00,,,0.03,30.000000,,2013-04-15 05:52:00,
2013-04-14 20:12:00,72.0,-26.0,-100.00,SSW,211,8.0,26.0,0,0.00,,,0.03,30.000000,,2013-04-15 06:12:00,
2013-04-14 20:22:00,72.0,-26.0,-100.00,SSW,211,8.0,26.0,0,0.00,,,0.03,30.000000,,2013-04-15 06:22:00,
2013-04-14 20:33:00,72.0,-26.0,-100.00,SSW,211,8.0,26.0,0,0.00,,,0.03,30.000000,,2013-04-15 06:33:00,
2013-04-14 20:42:00,72.0,-26.0,-100.00,SSW,211,8.0,26.0,0,0.00,,,0.03,30.000000,,2013-04-15 06:42:00,
2013-04-14 20:52:00,70.0,-27.0,-100.00,South,185,2.0,21.0,0,0.00,,,0.03,0.000000,,2013-04-15 06:52:00,
2013-04-14 21:41:00,70.0,-27.0,-100.00,South,185,2.0,21.0,0,0.00,,,0.03,0.000000,,2013-04-15 07:41:00,
2013-04-14 21:42:00,70.0,-27.0,-100.00,South,185,2.0,21.0,0,0.00,,,0.03,0.000000,,2013-04-15 07:42:00,
2013-04-14 22:13:00,69.0,-28.0,-100.00,SW,227,2.0,7.0,0,0.00,,,0.03,0.000000,,2013-04-15 08:13:00,
2013-04-14 22:22:00,69.0,-28.0,-100.00,SW,227,2.0,7.0,0,0.00,,,0.03,0.000000,,2013-04-15 08:22:00,
2013-04-14 22:33:00,69.0,-28.0,-100.00,SW,227,2.0,7.0,0,0.00,,,0.03,0.000000,,2013-04-15 08:33:00,
2013-04-14 22:42:00,69.0,-28.0,-100.00,SW,227,2.0,7.0,0,0.00,,,0.03,0.000000,,2013-04-15 08:42:00,
2013-04-14 22:51:00,69.0,-28.0,-100.00,SW,227,2.0,7.0,0,0.00,,,0.03,0.000000,,2013-04-15 08:51:00,
2013-04-14 22:52:00,68.0,-28.0,-100.00,SSW,195,2.0,8.0,0,0.00,,,0.03,0.000000,,2013-04-15 08:52:00,
2013-04-14 23:12:00,68.0,-28.0,-100.00,SSW,195,2.0,8.0,0,0.00,,,0.03,0.000000,,2013-04-15 09:12:00,
2013-04-14 23:22:00,68.0,-28.0,-100.00,SSW,195,2.0,8.0,0,0.00,,,0.03,0.000000,,2013-04-15 09:22:00,
2013-04-14 23:32:00,68.0,-28.0,-100.00,SSW,195,2.0,8.0,0,0.00,,,0.03,0.000000,,2013-04-15 09:32:00,
2013-04-14 23:42:00,68.0,-28.0,-100.00,SSW,195,2.0,8.0,0,0.00,,,0.03,0.000000,,2013-04-15 09:42:00,
2013-04-14 23:52:00,67.0,-29.0,-100.00,SSW,199,3.0,5.0,0,0.00,,,0.03,0.000000,,2013-04-15 09:52:00,